sensor_id;sensor_type;location;lat;lon;timestamp;P1;durP1;ratioP1;P2;durP2;ratioP2
13002;SDS011;66869;57.706;11.922;2023-05-21T00:00:44;1.08;;;0.63;;
13002;SDS011;66869;57.706;11.922;2023-05-21T00:03:11;0.77;;;0.60;;
13002;SDS011;66869;57.706;11.922;2023-05-21T00:05:44;0.60;;;0.60;;
13002;SDS011;66869;57.706;11.922;2023-05-21T00:08:12;0.80;;;0.80;;
13002;SDS011;66869;57.706;11.922;2023-05-21T00:10:39;0.60;;;0.60;;
13002;SDS011;66869;57.706;11.922;2023-05-21T00:13:07;0.73;;;0.73;;
13002;SDS011;66869;57.706;11.922;2023-05-21T00:15:35;0.70;;;0.70;;
13002;SDS011;66869;57.706;11.922;2023-05-21T00:18:03;0.77;;;0.70;;
13002;SDS011;66869;57.706;11.922;2023-05-21T00:20:29;0.70;;;0.70;;
13002;SDS011;66869;57.706;11.922;2023-05-21T00:22:58;0.70;;;0.70;;
13002;SDS011;66869;57.706;11.922;2023-05-21T00:25:28;1.17;;;0.90;;
13002;SDS011;66869;57.706;11.922;2023-05-21T00:27:54;0.80;;;0.70;;
13002;SDS011;66869;57.706;11.922;2023-05-21T00:30:21;0.75;;;0.75;;
13002;SDS011;66869;57.706;11.922;2023-05-21T00:32:48;0.55;;;0.55;;
13002;SDS011;66869;57.706;11.922;2023-05-21T00:35:13;0.80;;;0.60;;
13002;SDS011;66869;57.706;11.922;2023-05-21T00:37:39;0.93;;;0.70;;
13002;SDS011;66869;57.706;11.922;2023-05-21T00:40:06;0.60;;;0.60;;
13002;SDS011;66869;57.706;11.922;2023-05-21T00:42:34;0.70;;;0.70;;
13002;SDS011;66869;57.706;11.922;2023-05-21T00:45:04;0.80;;;0.80;;
13002;SDS011;66869;57.706;11.922;2023-05-21T00:47:31;0.75;;;0.68;;
13002;SDS011;66869;57.706;11.922;2023-05-21T00:49:58;0.90;;;0.70;;
13002;SDS011;66869;57.706;11.922;2023-05-21T00:52:24;0.73;;;0.73;;
13002;SDS011;66869;57.706;11.922;2023-05-21T00:54:52;0.88;;;0.70;;
13002;SDS011;66869;57.706;11.922;2023-05-21T00:57:19;0.47;;;0.47;;
13002;SDS011;66869;57.706;11.922;2023-05-21T00:59:46;1.23;;;0.70;;
13002;SDS011;66869;57.706;11.922;2023-05-21T01:02:13;1.05;;;0.80;;
13002;SDS011;66869;57.706;11.922;2023-05-21T01:04:44;0.85;;;0.82;;
13002;SDS011;66869;57.706;11.922;2023-05-21T01:07:11;0.70;;;0.70;;
13002;SDS011;66869;57.706;11.922;2023-05-21T01:09:38;1.48;;;0.68;;
13002;SDS011;66869;57.706;11.922;2023-05-21T01:12:05;0.70;;;0.70;;
13002;SDS011;66869;57.706;11.922;2023-05-21T01:14:33;0.60;;;0.60;;
13002;SDS011;66869;57.706;11.922;2023-05-21T01:17:00;0.90;;;0.90;;
13002;SDS011;66869;57.706;11.922;2023-05-21T01:19:27;1.42;;;0.80;;
13002;SDS011;66869;57.706;11.922;2023-05-21T01:22:00;0.80;;;0.80;;
13002;SDS011;66869;57.706;11.922;2023-05-21T01:24:44;0.70;;;0.70;;
13002;SDS011;66869;57.706;11.922;2023-05-21T01:27:14;0.75;;;0.75;;
13002;SDS011;66869;57.706;11.922;2023-05-21T01:29:40;0.73;;;0.73;;
13002;SDS011;66869;57.706;11.922;2023-05-21T01:34:49;0.57;;;0.57;;
13002;SDS011;66869;57.706;11.922;2023-05-21T01:37:29;0.70;;;0.70;;
13002;SDS011;66869;57.706;11.922;2023-05-21T01:39:58;2.05;;;0.77;;
13002;SDS011;66869;57.706;11.922;2023-05-21T01:42:25;0.70;;;0.70;;
13002;SDS011;66869;57.706;11.922;2023-05-21T01:44:54;0.98;;;0.90;;
13002;SDS011;66869;57.706;11.922;2023-05-21T01:47:22;1.27;;;0.70;;
13002;SDS011;66869;57.706;11.922;2023-05-21T01:49:49;0.65;;;0.65;;
13002;SDS011;66869;57.706;11.922;2023-05-21T01:52:18;0.80;;;0.80;;
13002;SDS011;66869;57.706;11.922;2023-05-21T01:54:43;0.90;;;0.90;;
13002;SDS011;66869;57.706;11.922;2023-05-21T01:57:10;0.50;;;0.50;;
13002;SDS011;66869;57.706;11.922;2023-05-21T01:59:37;0.95;;;0.60;;
13002;SDS011;66869;57.706;11.922;2023-05-21T02:02:04;0.75;;;0.75;;
13002;SDS011;66869;57.706;11.922;2023-05-21T02:04:31;0.70;;;0.70;;
13002;SDS011;66869;57.706;11.922;2023-05-21T02:06:56;1.52;;;0.60;;
13002;SDS011;66869;57.706;11.922;2023-05-21T02:09:23;0.80;;;0.80;;
13002;SDS011;66869;57.706;11.922;2023-05-21T02:11:49;1.88;;;0.70;;
13002;SDS011;66869;57.706;11.922;2023-05-21T02:14:15;0.75;;;0.70;;
13002;SDS011;66869;57.706;11.922;2023-05-21T02:16:42;1.10;;;0.70;;
13002;SDS011;66869;57.706;11.922;2023-05-21T02:19:07;0.70;;;0.70;;
13002;SDS011;66869;57.706;11.922;2023-05-21T02:21:35;1.48;;;0.60;;
13002;SDS011;66869;57.706;11.922;2023-05-21T02:24:01;0.60;;;0.60;;
13002;SDS011;66869;57.706;11.922;2023-05-21T02:26:27;0.93;;;0.82;;
13002;SDS011;66869;57.706;11.922;2023-05-21T02:28:53;1.60;;;0.75;;
13002;SDS011;66869;57.706;11.922;2023-05-21T02:31:20;0.80;;;0.73;;
13002;SDS011;66869;57.706;11.922;2023-05-21T02:33:46;0.60;;;0.60;;
13002;SDS011;66869;57.706;11.922;2023-05-21T02:36:13;1.05;;;0.80;;
13002;SDS011;66869;57.706;11.922;2023-05-21T02:38:39;0.60;;;0.60;;
13002;SDS011;66869;57.706;11.922;2023-05-21T02:41:11;0.60;;;0.60;;
13002;SDS011;66869;57.706;11.922;2023-05-21T02:43:38;0.77;;;0.77;;
13002;SDS011;66869;57.706;11.922;2023-05-21T02:46:04;0.70;;;0.70;;
13002;SDS011;66869;57.706;11.922;2023-05-21T02:48:30;0.80;;;0.80;;
13002;SDS011;66869;57.706;11.922;2023-05-21T02:50:57;1.23;;;0.80;;
13002;SDS011;66869;57.706;11.922;2023-05-21T02:53:23;0.40;;;0.40;;
13002;SDS011;66869;57.706;11.922;2023-05-21T02:55:50;0.98;;;0.73;;
13002;SDS011;66869;57.706;11.922;2023-05-21T02:58:17;0.82;;;0.70;;
13002;SDS011;66869;57.706;11.922;2023-05-21T03:00:42;0.75;;;0.75;;
13002;SDS011;66869;57.706;11.922;2023-05-21T03:03:07;0.57;;;0.55;;
13002;SDS011;66869;57.706;11.922;2023-05-21T03:05:33;0.70;;;0.70;;
13002;SDS011;66869;57.706;11.922;2023-05-21T03:08:12;1.30;;;1.08;;
13002;SDS011;66869;57.706;11.922;2023-05-21T03:10:38;0.63;;;0.63;;
13002;SDS011;66869;57.706;11.922;2023-05-21T03:13:06;1.40;;;0.60;;
13002;SDS011;66869;57.706;11.922;2023-05-21T03:15:32;0.73;;;0.70;;
13002;SDS011;66869;57.706;11.922;2023-05-21T03:18:00;0.70;;;0.70;;
13002;SDS011;66869;57.706;11.922;2023-05-21T03:20:29;0.60;;;0.60;;
13002;SDS011;66869;57.706;11.922;2023-05-21T03:22:54;0.68;;;0.68;;
13002;SDS011;66869;57.706;11.922;2023-05-21T03:25:21;0.60;;;0.60;;
13002;SDS011;66869;57.706;11.922;2023-05-21T03:27:50;0.50;;;0.50;;
13002;SDS011;66869;57.706;11.922;2023-05-21T03:30:16;1.77;;;0.65;;
13002;SDS011;66869;57.706;11.922;2023-05-21T03:32:42;0.60;;;0.60;;
13002;SDS011;66869;57.706;11.922;2023-05-21T03:35:10;0.98;;;0.70;;
13002;SDS011;66869;57.706;11.922;2023-05-21T03:37:36;0.70;;;0.70;;
13002;SDS011;66869;57.706;11.922;2023-05-21T03:40:03;1.73;;;0.65;;
13002;SDS011;66869;57.706;11.922;2023-05-21T03:42:28;0.77;;;0.77;;
13002;SDS011;66869;57.706;11.922;2023-05-21T03:44:54;0.50;;;0.50;;
13002;SDS011;66869;57.706;11.922;2023-05-21T03:47:21;1.38;;;0.70;;
13002;SDS011;66869;57.706;11.922;2023-05-21T03:49:47;0.75;;;0.70;;
13002;SDS011;66869;57.706;11.922;2023-05-21T03:52:13;0.88;;;0.70;;
13002;SDS011;66869;57.706;11.922;2023-05-21T03:54:39;0.68;;;0.65;;
13002;SDS011;66869;57.706;11.922;2023-05-21T03:57:06;0.57;;;0.57;;
13002;SDS011;66869;57.706;11.922;2023-05-21T03:59:32;0.60;;;0.60;;
13002;SDS011;66869;57.706;11.922;2023-05-21T04:01:57;1.75;;;0.50;;
13002;SDS011;66869;57.706;11.922;2023-05-21T04:04:24;0.60;;;0.60;;
13002;SDS011;66869;57.706;11.922;2023-05-21T04:06:50;0.75;;;0.75;;
13002;SDS011;66869;57.706;11.922;2023-05-21T04:09:19;0.60;;;0.60;;
13002;SDS011;66869;57.706;11.922;2023-05-21T04:11:49;0.52;;;0.52;;
13002;SDS011;66869;57.706;11.922;2023-05-21T04:14:15;0.85;;;0.60;;
13002;SDS011;66869;57.706;11.922;2023-05-21T04:16:42;0.65;;;0.60;;
13002;SDS011;66869;57.706;11.922;2023-05-21T04:19:09;1.00;;;0.65;;
13002;SDS011;66869;57.706;11.922;2023-05-21T04:21:36;1.55;;;0.60;;
13002;SDS011;66869;57.706;11.922;2023-05-21T04:24:01;0.77;;;0.68;;
13002;SDS011;66869;57.706;11.922;2023-05-21T04:26:28;0.60;;;0.60;;
13002;SDS011;66869;57.706;11.922;2023-05-21T04:28:59;0.60;;;0.55;;
13002;SDS011;66869;57.706;11.922;2023-05-21T04:31:29;0.50;;;0.50;;
13002;SDS011;66869;57.706;11.922;2023-05-21T04:33:57;0.50;;;0.50;;
13002;SDS011;66869;57.706;11.922;2023-05-21T04:36:25;2.10;;;0.70;;
13002;SDS011;66869;57.706;11.922;2023-05-21T04:38:54;2.53;;;0.80;;
13002;SDS011;66869;57.706;11.922;2023-05-21T04:41:20;0.70;;;0.70;;
13002;SDS011;66869;57.706;11.922;2023-05-21T04:43:46;1.85;;;0.68;;
13002;SDS011;66869;57.706;11.922;2023-05-21T04:46:13;0.80;;;0.70;;
13002;SDS011;66869;57.706;11.922;2023-05-21T04:48:41;0.45;;;0.45;;
13002;SDS011;66869;57.706;11.922;2023-05-21T04:51:08;0.80;;;0.60;;
13002;SDS011;66869;57.706;11.922;2023-05-21T04:53:34;0.50;;;0.50;;
13002;SDS011;66869;57.706;11.922;2023-05-21T04:56:00;0.80;;;0.60;;
13002;SDS011;66869;57.706;11.922;2023-05-21T04:58:29;0.50;;;0.50;;
13002;SDS011;66869;57.706;11.922;2023-05-21T05:00:58;0.77;;;0.50;;
13002;SDS011;66869;57.706;11.922;2023-05-21T05:03:28;0.60;;;0.60;;
13002;SDS011;66869;57.706;11.922;2023-05-21T05:05:55;0.40;;;0.40;;
13002;SDS011;66869;57.706;11.922;2023-05-21T05:08:22;0.60;;;0.60;;
13002;SDS011;66869;57.706;11.922;2023-05-21T05:10:49;0.50;;;0.50;;
13002;SDS011;66869;57.706;11.922;2023-05-21T05:13:15;1.00;;;0.60;;
13002;SDS011;66869;57.706;11.922;2023-05-21T05:15:42;0.50;;;0.50;;
13002;SDS011;66869;57.706;11.922;2023-05-21T05:18:08;1.35;;;0.40;;
13002;SDS011;66869;57.706;11.922;2023-05-21T05:20:35;0.47;;;0.47;;
13002;SDS011;66869;57.706;11.922;2023-05-21T05:23:01;0.65;;;0.65;;
13002;SDS011;66869;57.706;11.922;2023-05-21T05:25:27;0.40;;;0.40;;
13002;SDS011;66869;57.706;11.922;2023-05-21T05:27:54;0.50;;;0.40;;
13002;SDS011;66869;57.706;11.922;2023-05-21T05:30:20;0.57;;;0.40;;
13002;SDS011;66869;57.706;11.922;2023-05-21T05:32:47;0.77;;;0.52;;
13002;SDS011;66869;57.706;11.922;2023-05-21T05:35:13;0.47;;;0.47;;
13002;SDS011;66869;57.706;11.922;2023-05-21T05:37:40;0.43;;;0.40;;
13002;SDS011;66869;57.706;11.922;2023-05-21T05:40:07;0.40;;;0.40;;
13002;SDS011;66869;57.706;11.922;2023-05-21T05:42:33;0.45;;;0.45;;
13002;SDS011;66869;57.706;11.922;2023-05-21T05:45:00;0.57;;;0.50;;
13002;SDS011;66869;57.706;11.922;2023-05-21T05:47:26;0.52;;;0.52;;
13002;SDS011;66869;57.706;11.922;2023-05-21T05:49:53;0.30;;;0.30;;
13002;SDS011;66869;57.706;11.922;2023-05-21T05:52:18;0.43;;;0.40;;
13002;SDS011;66869;57.706;11.922;2023-05-21T05:54:43;0.80;;;0.30;;
13002;SDS011;66869;57.706;11.922;2023-05-21T05:57:10;0.40;;;0.40;;
13002;SDS011;66869;57.706;11.922;2023-05-21T05:59:36;0.50;;;0.50;;
13002;SDS011;66869;57.706;11.922;2023-05-21T06:02:02;1.45;;;0.40;;
13002;SDS011;66869;57.706;11.922;2023-05-21T06:04:28;0.35;;;0.35;;
13002;SDS011;66869;57.706;11.922;2023-05-21T06:06:55;0.80;;;0.40;;
13002;SDS011;66869;57.706;11.922;2023-05-21T06:09:28;1.63;;;0.38;;
13002;SDS011;66869;57.706;11.922;2023-05-21T06:11:54;0.32;;;0.32;;
13002;SDS011;66869;57.706;11.922;2023-05-21T06:14:21;0.40;;;0.40;;
13002;SDS011;66869;57.706;11.922;2023-05-21T06:16:46;0.45;;;0.45;;
13002;SDS011;66869;57.706;11.922;2023-05-21T06:19:14;0.52;;;0.40;;
13002;SDS011;66869;57.706;11.922;2023-05-21T06:21:41;0.35;;;0.30;;
13002;SDS011;66869;57.706;11.922;2023-05-21T06:24:07;0.95;;;0.47;;
13002;SDS011;66869;57.706;11.922;2023-05-21T06:26:34;0.30;;;0.30;;
13002;SDS011;66869;57.706;11.922;2023-05-21T06:29:00;0.32;;;0.32;;
13002;SDS011;66869;57.706;11.922;2023-05-21T06:31:28;0.30;;;0.22;;
13002;SDS011;66869;57.706;11.922;2023-05-21T06:33:57;0.40;;;0.40;;
13002;SDS011;66869;57.706;11.922;2023-05-21T06:36:25;0.30;;;0.30;;
13002;SDS011;66869;57.706;11.922;2023-05-21T06:38:58;1.38;;;0.30;;
13002;SDS011;66869;57.706;11.922;2023-05-21T06:41:24;0.50;;;0.47;;
13002;SDS011;66869;57.706;11.922;2023-05-21T06:43:52;0.88;;;0.50;;
13002;SDS011;66869;57.706;11.922;2023-05-21T06:46:19;0.50;;;0.30;;
13002;SDS011;66869;57.706;11.922;2023-05-21T06:48:45;1.35;;;0.40;;
13002;SDS011;66869;57.706;11.922;2023-05-21T06:51:12;5.47;;;0.60;;
13002;SDS011;66869;57.706;11.922;2023-05-21T06:53:37;0.40;;;0.38;;
13002;SDS011;66869;57.706;11.922;2023-05-21T06:56:04;1.20;;;0.40;;
13002;SDS011;66869;57.706;11.922;2023-05-21T06:58:31;0.40;;;0.30;;
13002;SDS011;66869;57.706;11.922;2023-05-21T07:00:58;0.32;;;0.32;;
13002;SDS011;66869;57.706;11.922;2023-05-21T07:03:24;0.40;;;0.40;;
13002;SDS011;66869;57.706;11.922;2023-05-21T07:05:51;0.77;;;0.60;;
13002;SDS011;66869;57.706;11.922;2023-05-21T07:08:18;0.30;;;0.30;;
13002;SDS011;66869;57.706;11.922;2023-05-21T07:10:49;0.80;;;0.40;;
13002;SDS011;66869;57.706;11.922;2023-05-21T07:13:16;0.22;;;0.22;;
13002;SDS011;66869;57.706;11.922;2023-05-21T07:15:43;0.57;;;0.50;;
13002;SDS011;66869;57.706;11.922;2023-05-21T07:18:09;0.30;;;0.30;;
13002;SDS011;66869;57.706;11.922;2023-05-21T07:20:36;0.32;;;0.32;;
13002;SDS011;66869;57.706;11.922;2023-05-21T07:23:03;0.30;;;0.30;;
13002;SDS011;66869;57.706;11.922;2023-05-21T07:25:29;0.73;;;0.50;;
13002;SDS011;66869;57.706;11.922;2023-05-21T07:27:55;1.85;;;0.47;;
13002;SDS011;66869;57.706;11.922;2023-05-21T07:30:21;0.28;;;0.28;;
13002;SDS011;66869;57.706;11.922;2023-05-21T07:32:47;10.75;;;2.40;;
13002;SDS011;66869;57.706;11.922;2023-05-21T07:35:14;24.58;;;5.72;;
13002;SDS011;66869;57.706;11.922;2023-05-21T07:37:40;26.08;;;5.45;;
13002;SDS011;66869;57.706;11.922;2023-05-21T07:40:07;22.58;;;5.63;;
13002;SDS011;66869;57.706;11.922;2023-05-21T07:42:34;15.00;;;4.22;;
13002;SDS011;66869;57.706;11.922;2023-05-21T07:45:00;22.55;;;6.03;;
13002;SDS011;66869;57.706;11.922;2023-05-21T07:47:27;19.85;;;5.70;;
13002;SDS011;66869;57.706;11.922;2023-05-21T07:49:54;20.77;;;5.72;;
13002;SDS011;66869;57.706;11.922;2023-05-21T07:52:21;15.52;;;3.80;;
13002;SDS011;66869;57.706;11.922;2023-05-21T07:54:47;15.00;;;3.83;;
13002;SDS011;66869;57.706;11.922;2023-05-21T07:57:13;10.18;;;3.17;;
13002;SDS011;66869;57.706;11.922;2023-05-21T07:59:38;9.38;;;2.28;;
13002;SDS011;66869;57.706;11.922;2023-05-21T08:02:04;10.90;;;2.35;;
13002;SDS011;66869;57.706;11.922;2023-05-21T08:04:30;10.55;;;3.28;;
13002;SDS011;66869;57.706;11.922;2023-05-21T08:06:55;5.32;;;1.85;;
13002;SDS011;66869;57.706;11.922;2023-05-21T08:09:22;11.38;;;2.15;;
13002;SDS011;66869;57.706;11.922;2023-05-21T08:11:49;8.75;;;1.90;;
13002;SDS011;66869;57.706;11.922;2023-05-21T08:14:16;5.07;;;1.67;;
13002;SDS011;66869;57.706;11.922;2023-05-21T08:16:44;5.28;;;1.70;;
13002;SDS011;66869;57.706;11.922;2023-05-21T08:19:10;3.63;;;1.23;;
13002;SDS011;66869;57.706;11.922;2023-05-21T08:21:36;6.20;;;1.30;;
13002;SDS011;66869;57.706;11.922;2023-05-21T08:24:03;6.93;;;1.50;;
13002;SDS011;66869;57.706;11.922;2023-05-21T08:26:30;4.90;;;1.20;;
13002;SDS011;66869;57.706;11.922;2023-05-21T08:28:56;2.60;;;1.15;;
13002;SDS011;66869;57.706;11.922;2023-05-21T08:31:23;5.00;;;1.00;;
13002;SDS011;66869;57.706;11.922;2023-05-21T08:33:50;3.80;;;0.90;;
13002;SDS011;66869;57.706;11.922;2023-05-21T08:36:18;2.80;;;1.10;;
13002;SDS011;66869;57.706;11.922;2023-05-21T08:38:45;3.65;;;1.13;;
13002;SDS011;66869;57.706;11.922;2023-05-21T08:41:11;3.05;;;1.05;;
13002;SDS011;66869;57.706;11.922;2023-05-21T08:43:39;2.10;;;0.80;;
13002;SDS011;66869;57.706;11.922;2023-05-21T08:46:05;2.83;;;0.93;;
13002;SDS011;66869;57.706;11.922;2023-05-21T08:48:30;5.75;;;1.23;;
13002;SDS011;66869;57.706;11.922;2023-05-21T08:50:58;2.10;;;0.70;;
13002;SDS011;66869;57.706;11.922;2023-05-21T08:53:25;1.52;;;0.80;;
13002;SDS011;66869;57.706;11.922;2023-05-21T08:55:55;2.20;;;0.80;;
13002;SDS011;66869;57.706;11.922;2023-05-21T08:58:21;1.30;;;0.88;;
13002;SDS011;66869;57.706;11.922;2023-05-21T09:00:46;2.70;;;0.80;;
13002;SDS011;66869;57.706;11.922;2023-05-21T09:03:12;2.38;;;0.75;;
13002;SDS011;66869;57.706;11.922;2023-05-21T09:05:40;6.93;;;0.70;;
13002;SDS011;66869;57.706;11.922;2023-05-21T09:10:53;1.08;;;0.70;;
13002;SDS011;66869;57.706;11.922;2023-05-21T09:13:19;1.08;;;0.60;;
13002;SDS011;66869;57.706;11.922;2023-05-21T09:15:46;1.77;;;0.77;;
13002;SDS011;66869;57.706;11.922;2023-05-21T09:18:14;1.00;;;0.63;;
13002;SDS011;66869;57.706;11.922;2023-05-21T09:20:39;1.58;;;0.65;;
13002;SDS011;66869;57.706;11.922;2023-05-21T09:23:07;3.50;;;0.80;;
13002;SDS011;66869;57.706;11.922;2023-05-21T09:25:54;1.95;;;0.60;;
13002;SDS011;66869;57.706;11.922;2023-05-21T09:28:21;3.25;;;0.60;;
13002;SDS011;66869;57.706;11.922;2023-05-21T09:30:47;1.52;;;0.50;;
13002;SDS011;66869;57.706;11.922;2023-05-21T09:33:24;0.43;;;0.43;;
13002;SDS011;66869;57.706;11.922;2023-05-21T09:35:51;0.55;;;0.55;;
13002;SDS011;66869;57.706;11.922;2023-05-21T09:38:20;1.15;;;0.60;;
13002;SDS011;66869;57.706;11.922;2023-05-21T09:40:47;0.95;;;0.50;;
13002;SDS011;66869;57.706;11.922;2023-05-21T09:43:13;0.40;;;0.40;;
13002;SDS011;66869;57.706;11.922;2023-05-21T09:45:54;0.40;;;0.40;;
13002;SDS011;66869;57.706;11.922;2023-05-21T09:48:39;0.70;;;0.50;;
13002;SDS011;66869;57.706;11.922;2023-05-21T09:51:19;1.20;;;0.50;;
13002;SDS011;66869;57.706;11.922;2023-05-21T09:53:55;0.60;;;0.43;;
13002;SDS011;66869;57.706;11.922;2023-05-21T09:56:26;0.60;;;0.60;;
13002;SDS011;66869;57.706;11.922;2023-05-21T09:58:55;0.50;;;0.50;;
13002;SDS011;66869;57.706;11.922;2023-05-21T10:01:22;1.45;;;0.55;;
13002;SDS011;66869;57.706;11.922;2023-05-21T10:03:52;1.60;;;0.45;;
13002;SDS011;66869;57.706;11.922;2023-05-21T10:06:20;0.50;;;0.47;;
13002;SDS011;66869;57.706;11.922;2023-05-21T10:08:47;1.25;;;0.50;;
13002;SDS011;66869;57.706;11.922;2023-05-21T10:11:15;0.47;;;0.43;;
13002;SDS011;66869;57.706;11.922;2023-05-21T10:13:43;0.50;;;0.50;;
13002;SDS011;66869;57.706;11.922;2023-05-21T10:16:19;0.30;;;0.30;;
13002;SDS011;66869;57.706;11.922;2023-05-21T10:18:45;0.50;;;0.50;;
13002;SDS011;66869;57.706;11.922;2023-05-21T10:21:14;0.38;;;0.38;;
13002;SDS011;66869;57.706;11.922;2023-05-21T10:23:41;0.60;;;0.60;;
13002;SDS011;66869;57.706;11.922;2023-05-21T10:26:08;0.30;;;0.30;;
13002;SDS011;66869;57.706;11.922;2023-05-21T10:28:35;0.40;;;0.40;;
13002;SDS011;66869;57.706;11.922;2023-05-21T10:31:02;0.40;;;0.40;;
13002;SDS011;66869;57.706;11.922;2023-05-21T10:33:29;0.40;;;0.40;;
13002;SDS011;66869;57.706;11.922;2023-05-21T10:36:00;0.30;;;0.30;;
13002;SDS011;66869;57.706;11.922;2023-05-21T10:38:27;0.45;;;0.40;;
13002;SDS011;66869;57.706;11.922;2023-05-21T10:40:54;0.40;;;0.40;;
13002;SDS011;66869;57.706;11.922;2023-05-21T10:54:51;0.40;;;0.40;;
13002;SDS011;66869;57.706;11.922;2023-05-21T10:59:55;0.22;;;0.22;;
13002;SDS011;66869;57.706;11.922;2023-05-21T11:02:24;0.40;;;0.40;;
13002;SDS011;66869;57.706;11.922;2023-05-21T11:04:56;0.40;;;0.40;;
13002;SDS011;66869;57.706;11.922;2023-05-21T11:07:49;1.08;;;0.60;;
13002;SDS011;66869;57.706;11.922;2023-05-21T11:10:56;0.32;;;0.32;;
13002;SDS011;66869;57.706;11.922;2023-05-21T11:13:09;0.52;;;0.52;;
13002;SDS011;66869;57.706;11.922;2023-05-21T11:18:22;0.47;;;0.47;;
13002;SDS011;66869;57.706;11.922;2023-05-21T11:20:52;0.30;;;0.30;;
13002;SDS011;66869;57.706;11.922;2023-05-21T11:23:21;0.40;;;0.40;;
13002;SDS011;66869;57.706;11.922;2023-05-21T11:26:06;0.30;;;0.30;;
13002;SDS011;66869;57.706;11.922;2023-05-21T11:28:32;0.50;;;0.50;;
13002;SDS011;66869;57.706;11.922;2023-05-21T11:33:46;0.45;;;0.45;;
13002;SDS011;66869;57.706;11.922;2023-05-21T11:36:16;0.65;;;0.52;;
13002;SDS011;66869;57.706;11.922;2023-05-21T11:38:42;0.30;;;0.30;;
13002;SDS011;66869;57.706;11.922;2023-05-21T11:41:28;0.30;;;0.30;;
13002;SDS011;66869;57.706;11.922;2023-05-21T11:44:07;0.88;;;0.30;;
13002;SDS011;66869;57.706;11.922;2023-05-21T11:46:36;0.65;;;0.43;;
13002;SDS011;66869;57.706;11.922;2023-05-21T11:49:03;0.35;;;0.30;;
13002;SDS011;66869;57.706;11.922;2023-05-21T11:51:31;1.00;;;0.30;;
13002;SDS011;66869;57.706;11.922;2023-05-21T11:53:56;0.40;;;0.40;;
13002;SDS011;66869;57.706;11.922;2023-05-21T11:56:24;0.30;;;0.30;;
13002;SDS011;66869;57.706;11.922;2023-05-21T11:58:52;0.30;;;0.30;;
13002;SDS011;66869;57.706;11.922;2023-05-21T12:01:24;0.80;;;0.30;;
13002;SDS011;66869;57.706;11.922;2023-05-21T12:03:51;0.70;;;0.60;;
13002;SDS011;66869;57.706;11.922;2023-05-21T12:06:16;0.32;;;0.32;;
13002;SDS011;66869;57.706;11.922;2023-05-21T12:08:43;0.55;;;0.55;;
13002;SDS011;66869;57.706;11.922;2023-05-21T12:11:25;0.52;;;0.52;;
13002;SDS011;66869;57.706;11.922;2023-05-21T12:13:53;0.30;;;0.30;;
13002;SDS011;66869;57.706;11.922;2023-05-21T12:16:20;0.30;;;0.30;;
13002;SDS011;66869;57.706;11.922;2023-05-21T12:18:48;0.30;;;0.30;;
13002;SDS011;66869;57.706;11.922;2023-05-21T12:21:15;0.50;;;0.50;;
13002;SDS011;66869;57.706;11.922;2023-05-21T12:23:42;0.60;;;0.60;;
13002;SDS011;66869;57.706;11.922;2023-05-21T12:26:08;0.77;;;0.40;;
13002;SDS011;66869;57.706;11.922;2023-05-21T12:28:35;0.32;;;0.32;;
13002;SDS011;66869;57.706;11.922;2023-05-21T12:31:02;0.47;;;0.47;;
13002;SDS011;66869;57.706;11.922;2023-05-21T12:33:35;0.45;;;0.45;;
13002;SDS011;66869;57.706;11.922;2023-05-21T12:36:01;0.45;;;0.40;;
13002;SDS011;66869;57.706;11.922;2023-05-21T12:38:32;0.93;;;0.50;;
13002;SDS011;66869;57.706;11.922;2023-05-21T12:41:04;1.15;;;0.40;;
13002;SDS011;66869;57.706;11.922;2023-05-21T12:43:31;1.52;;;0.50;;
13002;SDS011;66869;57.706;11.922;2023-05-21T12:45:58;0.50;;;0.50;;
13002;SDS011;66869;57.706;11.922;2023-05-21T12:48:23;1.85;;;0.50;;
13002;SDS011;66869;57.706;11.922;2023-05-21T12:50:50;0.40;;;0.40;;
13002;SDS011;66869;57.706;11.922;2023-05-21T12:53:20;0.60;;;0.60;;
13002;SDS011;66869;57.706;11.922;2023-05-21T12:55:45;0.50;;;0.50;;
13002;SDS011;66869;57.706;11.922;2023-05-21T12:58:12;0.50;;;0.50;;
13002;SDS011;66869;57.706;11.922;2023-05-21T13:00:40;0.50;;;0.50;;
13002;SDS011;66869;57.706;11.922;2023-05-21T13:03:06;0.55;;;0.40;;
13002;SDS011;66869;57.706;11.922;2023-05-21T13:05:32;0.40;;;0.40;;
13002;SDS011;66869;57.706;11.922;2023-05-21T13:07:59;1.23;;;0.50;;
13002;SDS011;66869;57.706;11.922;2023-05-21T13:10:25;0.50;;;0.50;;
13002;SDS011;66869;57.706;11.922;2023-05-21T13:12:53;0.63;;;0.50;;
13002;SDS011;66869;57.706;11.922;2023-05-21T13:15:20;0.40;;;0.40;;
13002;SDS011;66869;57.706;11.922;2023-05-21T13:17:46;0.40;;;0.40;;
13002;SDS011;66869;57.706;11.922;2023-05-21T13:20:18;1.30;;;0.40;;
13002;SDS011;66869;57.706;11.922;2023-05-21T13:22:48;0.50;;;0.50;;
13002;SDS011;66869;57.706;11.922;2023-05-21T13:25:19;0.40;;;0.40;;
13002;SDS011;66869;57.706;11.922;2023-05-21T13:27:50;0.40;;;0.40;;
13002;SDS011;66869;57.706;11.922;2023-05-21T13:30:17;0.60;;;0.60;;
13002;SDS011;66869;57.706;11.922;2023-05-21T13:32:44;1.10;;;0.63;;
13002;SDS011;66869;57.706;11.922;2023-05-21T13:35:10;0.47;;;0.47;;
13002;SDS011;66869;57.706;11.922;2023-05-21T13:37:37;1.08;;;0.50;;
13002;SDS011;66869;57.706;11.922;2023-05-21T13:40:04;0.35;;;0.20;;
13002;SDS011;66869;57.706;11.922;2023-05-21T13:42:30;0.50;;;0.50;;
13002;SDS011;66869;57.706;11.922;2023-05-21T13:44:57;0.43;;;0.43;;
13002;SDS011;66869;57.706;11.922;2023-05-21T13:47:23;0.57;;;0.50;;
13002;SDS011;66869;57.706;11.922;2023-05-21T13:49:50;0.63;;;0.63;;
13002;SDS011;66869;57.706;11.922;2023-05-21T13:52:17;0.60;;;0.60;;
13002;SDS011;66869;57.706;11.922;2023-05-21T13:54:42;0.50;;;0.50;;
13002;SDS011;66869;57.706;11.922;2023-05-21T13:57:08;0.60;;;0.50;;
13002;SDS011;66869;57.706;11.922;2023-05-21T13:59:35;1.33;;;0.70;;
13002;SDS011;66869;57.706;11.922;2023-05-21T14:02:01;0.35;;;0.35;;
13002;SDS011;66869;57.706;11.922;2023-05-21T14:04:28;0.30;;;0.30;;
13002;SDS011;66869;57.706;11.922;2023-05-21T14:06:54;0.57;;;0.57;;
13002;SDS011;66869;57.706;11.922;2023-05-21T14:09:21;2.58;;;0.65;;
13002;SDS011;66869;57.706;11.922;2023-05-21T14:11:48;0.60;;;0.60;;
13002;SDS011;66869;57.706;11.922;2023-05-21T14:14:16;0.68;;;0.50;;
13002;SDS011;66869;57.706;11.922;2023-05-21T14:16:44;0.60;;;0.60;;
13002;SDS011;66869;57.706;11.922;2023-05-21T14:19:13;0.68;;;0.50;;
13002;SDS011;66869;57.706;11.922;2023-05-21T14:21:40;1.25;;;0.60;;
13002;SDS011;66869;57.706;11.922;2023-05-21T14:24:07;0.70;;;0.70;;
13002;SDS011;66869;57.706;11.922;2023-05-21T14:26:33;0.40;;;0.40;;
13002;SDS011;66869;57.706;11.922;2023-05-21T14:29:02;0.68;;;0.68;;
13002;SDS011;66869;57.706;11.922;2023-05-21T14:31:29;1.35;;;0.50;;
13002;SDS011;66869;57.706;11.922;2023-05-21T14:33:55;1.17;;;0.57;;
13002;SDS011;66869;57.706;11.922;2023-05-21T14:36:21;0.70;;;0.70;;
13002;SDS011;66869;57.706;11.922;2023-05-21T14:38:48;0.40;;;0.40;;
13002;SDS011;66869;57.706;11.922;2023-05-21T14:41:14;0.82;;;0.50;;
13002;SDS011;66869;57.706;11.922;2023-05-21T14:43:40;0.30;;;0.30;;
13002;SDS011;66869;57.706;11.922;2023-05-21T14:46:06;1.17;;;0.28;;
13002;SDS011;66869;57.706;11.922;2023-05-21T14:48:33;0.30;;;0.30;;
13002;SDS011;66869;57.706;11.922;2023-05-21T14:50:59;1.25;;;0.20;;
13002;SDS011;66869;57.706;11.922;2023-05-21T14:53:24;0.65;;;0.30;;
13002;SDS011;66869;57.706;11.922;2023-05-21T14:55:51;0.20;;;0.20;;
13002;SDS011;66869;57.706;11.922;2023-05-21T14:58:19;0.57;;;0.35;;
13002;SDS011;66869;57.706;11.922;2023-05-21T15:00:45;0.50;;;0.40;;